Ter Streep — ORDJ — position and weather

sailwx.info

Track history (hours):
 
Tides and Currents Weather Stations Pressure Air Temp Water Temp Dewpoint Dewpoint Depression Visibility Wind Speed Wind Dir Waves Ship Positions

Oceanographic research ship Ter Streep (Belgium)

Detailed information on ship capabilities available from University of Delaware's Ocean Information Center.

Last reported at 2017-Oct-19 13:37 UTC. Time now 2017-Oct-19 16:35 UTC.
Position N 51°14' E 002°56'.

Length 50 m; draft 3.7 m.

Type: Ship. MMSI: 205112000.

Date/timePositionNaut miles runAvg speedWind from/ knotsBaromVisibWave heightAir tempDewpointWater temp
2017-Oct-19 13:37N 51°14' E 002°56'0 2.7
2017-Oct-19 13:30N 51°14' E 002°56'510.0
2017-Oct-19 12:59N 51°18' E 002°52'511.2
2017-Oct-19 12:30N 51°24' E 002°49'22 6.7
2017-Oct-19 09:09N 51°43' E 002°30'1 8.4
2017-Oct-19 09:00N 51°44' E 002°32'6 8.5
2017-Oct-19 08:20N 51°48' E 002°38'0 0.3
2017-Oct-19 08:00N 51°48' E 002°38'4 8.5
2017-Oct-19 07:31N 51°45' E 002°33'2 3.3
2017-Oct-19 07:00N 51°44' E 002°31'4 8.8
2017-Oct-19 06:31N 51°47' E 002°36'1 2.6
2017-Oct-19 06:00N 51°48' E 002°37'4 7.9
2017-Oct-19 05:31N 51°45' E 002°33'2 3.8
2017-Oct-19 04:59N 51°44' E 002°31'4 8.6
2017-Oct-19 04:31N 51°47' E 002°35'2 4.7
2017-Oct-19 04:00N 51°49' E 002°38'4 8.1
2017-Oct-19 03:29N 51°46' E 002°33'2 0.7
2017-Oct-19 01:14N 51°45' E 002°32'2 7.7
2017-Oct-19 01:00N 51°43' E 002°30'18 2.2
2017-Oct-18 16:51N 51°32' E 002°52'412.5
2017-Oct-18 16:31N 51°29' E 002°57'611.4
2017-Oct-18 16:00N 51°32' E 003°06'611.1
2017-Oct-18 15:30N 51°34' E 003°14'711.9
2017-Oct-18 14:56N 51°34' E 003°25'2 1.8
2017-Oct-18 14:00N 51°32' E 003°26'0 0.3
2017-Oct-18 13:30N 51°32' E 003°25'1 1.7
2017-Oct-18 13:00N 51°33' E 003°25'1 1.8
2017-Oct-18 12:30N 51°32' E 003°25'0 0.5
2017-Oct-18 12:00N 51°32' E 003°24'0 0.4
2017-Oct-18 11:30N 51°32' E 003°24'1 1.6
2017-Oct-18 10:58N 51°33' E 003°25'0 0.9
2017-Oct-18 10:30N 51°32' E 003°25'2 3.4
2017-Oct-18 09:59N 51°31' E 003°26'510.4
2017-Oct-18 09:30N 51°27' E 003°32'4 7.1
2017-Oct-18 09:00N 51°25' E 003°28'611.8
2017-Oct-18 08:30N 51°24' E 003°19'611.3
2017-Oct-18 08:00N 51°22' E 003°10'510.7
2017-Oct-18 07:30N 51°21' E 003°02'510.3
2017-Oct-18 07:00N 51°18' E 002°55'4 8.4
2017-Oct-18 06:30N 51°14' E 002°56'0 0.7
2017-Oct-18 05:59N 51°14' E 002°56'0 0.0
2017-Oct-17 13:25N 51°14' E 002°56'2 5.3
2017-Oct-17 13:01N 51°15' E 002°54'2 3.0
2017-Oct-17 12:30N 51°17' E 002°53'4 7.4
2017-Oct-17 12:00N 51°19' E 002°58'4 7.1
2017-Oct-17 11:30N 51°17' E 002°53'4 7.2
2017-Oct-17 10:59N 51°19' E 002°59'4 7.3
2017-Oct-17 10:31N 51°17' E 002°54'3 6.5
2017-Oct-17 10:00N 51°19' E 002°58'3 6.5
2017-Oct-17 09:31N 51°21' E 003°02'1 2.6
2017-Oct-17 09:00N 51°22' E 003°03'2 3.7
2017-Oct-17 08:31N 51°21' E 003°01'0 0.5
2017-Oct-17 08:00N 51°21' E 003°00'2 3.9
2017-Oct-17 07:31N 51°22' E 003°03'3 5.8
2017-Oct-17 07:00N 51°20' E 002°59'5 9.1
2017-Oct-17 06:30N 51°18' E 002°53'4 8.3
2017-Oct-17 05:59N 51°14' E 002°56'1 0.0
2017-Oct-16 14:00N 51°14' E 002°55'611.1
2017-Oct-16 13:30N 51°19' E 002°51'19 8.8
2017-Oct-16 11:21N 51°37' E 002°42'4 7.7
2017-Oct-16 10:51N 51°34' E 002°39'2 5.4
2017-Oct-16 10:29N 51°35' E 002°41'1 1.8
2017-Oct-16 09:59N 51°36' E 002°41'3 5.7
2017-Oct-16 09:29N 51°34' E 002°39'4 7.6
2017-Oct-16 09:01N 51°37' E 002°42'4 6.6
2017-Oct-16 08:26N 51°34' E 002°39'3 8.1
2017-Oct-16 08:00N 51°30' E 002°41'611.8
2017-Oct-16 07:30N 51°25' E 002°45'611.8
2017-Oct-16 07:00N 51°20' E 002°50'611.7
2017-Oct-16 06:30N 51°15' E 002°55'2 3.2
2017-Oct-16 06:00N 51°14' E 002°56'  
2017-Oct-13 13:36N 51°14' E 002°56'0 1.8
2017-Oct-13 13:29N 51°14' E 002°56'4 8.4
2017-Oct-13 12:59N 51°18' E 002°54'5 9.4
2017-Oct-13 12:30N 51°20' E 002°60'1 2.5
2017-Oct-13 12:00N 51°21' E 003°02'1 1.9
2017-Oct-13 11:30N 51°21' E 003°00'2 3.2
2017-Oct-13 11:00N 51°21' E 003°03'0 0.9
2017-Oct-13 10:30N 51°21' E 003°03'0 0.8
2017-Oct-13 10:00N 51°21' E 003°03'0 0.4
2017-Oct-13 09:31N 51°21' E 003°02'1 1.2
2017-Oct-13 09:00N 51°21' E 003°02'1 1.2
2017-Oct-13 08:30N 51°21' E 003°02'0 0.9
2017-Oct-13 08:00N 51°21' E 003°03'3 6.5
2017-Oct-13 07:30N 51°20' E 002°58'5 9.6
2017-Oct-13 07:00N 51°17' E 002°53'4 7.4
2017-Oct-13 06:30N 51°14' E 002°56'0 0.0
2017-Oct-13 06:00N 51°14' E 002°56'  
2017-Oct-10 13:40N 51°14' E 002°56'0 2.2
2017-Oct-10 13:30N 51°14' E 002°56'2 4.4
2017-Oct-10 13:00N 51°15' E 002°53'2 3.1
2017-Oct-10 12:30N 51°16' E 002°52'2 5.0
2017-Oct-10 12:00N 51°19' E 002°52'3 5.1
2017-Oct-10 11:30N 51°20' E 002°56'2 4.8
2017-Oct-10 11:00N 51°20' E 002°60'0 0.7
2017-Oct-10 10:30N 51°20' E 002°59'1 1.9
2017-Oct-10 10:00N 51°21' E 003°01'1 2.8
2017-Oct-10 09:31N 51°20' E 002°59'1 1.6
2017-Oct-10 09:00N 51°19' E 002°58'3 5.7
2017-Oct-10 08:30N 51°19' E 002°53'1 1.0
2017-Oct-10 08:00N 51°19' E 002°54'0 0.9
2017-Oct-10 07:30N 51°19' E 002°53'1 2.0
2017-Oct-10 07:00N 51°18' E 002°53'  
Track history (hours):
 
Tides and Currents Weather Stations Pressure Air Temp Water Temp Dewpoint Dewpoint Depression Visibility Wind Speed Wind Dir Waves Ship Positions

Oceanographic research ship Ter Streep (Belgium)

Detailed information on ship capabilities available from University of Delaware's Ocean Information Center.

Last reported at 2017-Oct-19 13:37 UTC. Time now 2017-Oct-19 16:35 UTC.
Position N 51°14' E 002°56'.

Length 50 m; draft 3.7 m.

Type: Ship. MMSI: 205112000.

Date/timePositionNaut miles runAvg speedWind from/ knotsBaromVisibWave heightAir tempDewpointWater temp
2017-Oct-19 13:37N 51°14' E 002°56'0 2.7
2017-Oct-19 13:30N 51°14' E 002°56'510.0
2017-Oct-19 12:59N 51°18' E 002°52'511.2
2017-Oct-19 12:30N 51°24' E 002°49'22 6.7
2017-Oct-19 09:09N 51°43' E 002°30'1 8.4
2017-Oct-19 09:00N 51°44' E 002°32'6 8.5
2017-Oct-19 08:20N 51°48' E 002°38'0 0.3
2017-Oct-19 08:00N 51°48' E 002°38'4 8.5
2017-Oct-19 07:31N 51°45' E 002°33'2 3.3
2017-Oct-19 07:00N 51°44' E 002°31'4 8.8
2017-Oct-19 06:31N 51°47' E 002°36'1 2.6
2017-Oct-19 06:00N 51°48' E 002°37'4 7.9
2017-Oct-19 05:31N 51°45' E 002°33'2 3.8
2017-Oct-19 04:59N 51°44' E 002°31'4 8.6
2017-Oct-19 04:31N 51°47' E 002°35'2 4.7
2017-Oct-19 04:00N 51°49' E 002°38'4 8.1
2017-Oct-19 03:29N 51°46' E 002°33'2 0.7
2017-Oct-19 01:14N 51°45' E 002°32'2 7.7
2017-Oct-19 01:00N 51°43' E 002°30'18 2.2
2017-Oct-18 16:51N 51°32' E 002°52'412.5
2017-Oct-18 16:31N 51°29' E 002°57'611.4
2017-Oct-18 16:00N 51°32' E 003°06'611.1
2017-Oct-18 15:30N 51°34' E 003°14'711.9
2017-Oct-18 14:56N 51°34' E 003°25'2 1.8
2017-Oct-18 14:00N 51°32' E 003°26'0 0.3
2017-Oct-18 13:30N 51°32' E 003°25'1 1.7
2017-Oct-18 13:00N 51°33' E 003°25'1 1.8
2017-Oct-18 12:30N 51°32' E 003°25'0 0.5
2017-Oct-18 12:00N 51°32' E 003°24'0 0.4
2017-Oct-18 11:30N 51°32' E 003°24'1 1.6
2017-Oct-18 10:58N 51°33' E 003°25'0 0.9
2017-Oct-18 10:30N 51°32' E 003°25'2 3.4
2017-Oct-18 09:59N 51°31' E 003°26'510.4
2017-Oct-18 09:30N 51°27' E 003°32'4 7.1
2017-Oct-18 09:00N 51°25' E 003°28'611.8
2017-Oct-18 08:30N 51°24' E 003°19'611.3
2017-Oct-18 08:00N 51°22' E 003°10'510.7
2017-Oct-18 07:30N 51°21' E 003°02'510.3
2017-Oct-18 07:00N 51°18' E 002°55'4 8.4
2017-Oct-18 06:30N 51°14' E 002°56'0 0.7
2017-Oct-18 05:59N 51°14' E 002°56'0 0.0
2017-Oct-17 13:25N 51°14' E 002°56'2 5.3
2017-Oct-17 13:01N 51°15' E 002°54'2 3.0
2017-Oct-17 12:30N 51°17' E 002°53'4 7.4
2017-Oct-17 12:00N 51°19' E 002°58'4 7.1
2017-Oct-17 11:30N 51°17' E 002°53'4 7.2
2017-Oct-17 10:59N 51°19' E 002°59'4 7.3
2017-Oct-17 10:31N 51°17' E 002°54'3 6.5
2017-Oct-17 10:00N 51°19' E 002°58'3 6.5
2017-Oct-17 09:31N 51°21' E 003°02'1 2.6
2017-Oct-17 09:00N 51°22' E 003°03'2 3.7
2017-Oct-17 08:31N 51°21' E 003°01'0 0.5
2017-Oct-17 08:00N 51°21' E 003°00'2 3.9
2017-Oct-17 07:31N 51°22' E 003°03'3 5.8
2017-Oct-17 07:00N 51°20' E 002°59'5 9.1
2017-Oct-17 06:30N 51°18' E 002°53'4 8.3
2017-Oct-17 05:59N 51°14' E 002°56'1 0.0
2017-Oct-16 14:00N 51°14' E 002°55'611.1
2017-Oct-16 13:30N 51°19' E 002°51'19 8.8
2017-Oct-16 11:21N 51°37' E 002°42'4 7.7
2017-Oct-16 10:51N 51°34' E 002°39'2 5.4
2017-Oct-16 10:29N 51°35' E 002°41'1 1.8
2017-Oct-16 09:59N 51°36' E 002°41'3 5.7
2017-Oct-16 09:29N 51°34' E 002°39'4 7.6
2017-Oct-16 09:01N 51°37' E 002°42'4 6.6
2017-Oct-16 08:26N 51°34' E 002°39'3 8.1
2017-Oct-16 08:00N 51°30' E 002°41'611.8
2017-Oct-16 07:30N 51°25' E 002°45'611.8
2017-Oct-16 07:00N 51°20' E 002°50'611.7
2017-Oct-16 06:30N 51°15' E 002°55'2 3.2
2017-Oct-16 06:00N 51°14' E 002°56'  
2017-Oct-13 13:36N 51°14' E 002°56'0 1.8
2017-Oct-13 13:29N 51°14' E 002°56'4 8.4
2017-Oct-13 12:59N 51°18' E 002°54'5 9.4
2017-Oct-13 12:30N 51°20' E 002°60'1 2.5
2017-Oct-13 12:00N 51°21' E 003°02'1 1.9
2017-Oct-13 11:30N 51°21' E 003°00'2 3.2
2017-Oct-13 11:00N 51°21' E 003°03'0 0.9
2017-Oct-13 10:30N 51°21' E 003°03'0 0.8
2017-Oct-13 10:00N 51°21' E 003°03'0 0.4
2017-Oct-13 09:31N 51°21' E 003°02'1 1.2
2017-Oct-13 09:00N 51°21' E 003°02'1 1.2
2017-Oct-13 08:30N 51°21' E 003°02'0 0.9
2017-Oct-13 08:00N 51°21' E 003°03'3 6.5
2017-Oct-13 07:30N 51°20' E 002°58'5 9.6
2017-Oct-13 07:00N 51°17' E 002°53'4 7.4
2017-Oct-13 06:30N 51°14' E 002°56'0 0.0
2017-Oct-13 06:00N 51°14' E 002°56'  
2017-Oct-10 13:40N 51°14' E 002°56'0 2.2
2017-Oct-10 13:30N 51°14' E 002°56'2 4.4
2017-Oct-10 13:00N 51°15' E 002°53'2 3.1
2017-Oct-10 12:30N 51°16' E 002°52'2 5.0
2017-Oct-10 12:00N 51°19' E 002°52'3 5.1
2017-Oct-10 11:30N 51°20' E 002°56'2 4.8
2017-Oct-10 11:00N 51°20' E 002°60'0 0.7
2017-Oct-10 10:30N 51°20' E 002°59'1 1.9
2017-Oct-10 10:00N 51°21' E 003°01'1 2.8
2017-Oct-10 09:31N 51°20' E 002°59'1 1.6
2017-Oct-10 09:00N 51°19' E 002°58'3 5.7
2017-Oct-10 08:30N 51°19' E 002°53'1 1.0
2017-Oct-10 08:00N 51°19' E 002°54'0 0.9
2017-Oct-10 07:30N 51°19' E 002°53'1 2.0
2017-Oct-10 07:00N 51°18' E 002°53'  

Dump ship's entire track history